sensor_id;sensor_type;location;lat;lon;timestamp;pressure;altitude;pressure_sealevel;temperature;humidity
35489;BME280;21602;55.670;37.578;2023-04-29T00:01:57;98944.47;;;4.32;100.00
35489;BME280;21602;55.670;37.578;2023-04-29T00:04:25;98943.66;;;4.31;100.00
35489;BME280;21602;55.670;37.578;2023-04-29T00:06:51;98957.31;;;4.28;100.00
35489;BME280;21602;55.670;37.578;2023-04-29T00:09:17;98950.41;;;4.27;100.00
35489;BME280;21602;55.670;37.578;2023-04-29T00:11:43;98950.41;;;4.27;100.00
35489;BME280;21602;55.670;37.578;2023-04-29T00:14:11;98939.63;;;4.29;100.00
35489;BME280;21602;55.670;37.578;2023-04-29T00:16:37;98937.19;;;4.34;100.00
35489;BME280;21602;55.670;37.578;2023-04-29T00:19:04;98933.72;;;4.33;100.00
35489;BME280;21602;55.670;37.578;2023-04-29T00:21:31;98950.59;;;4.26;100.00
35489;BME280;21602;55.670;37.578;2023-04-29T00:23:58;98935.56;;;4.20;100.00
35489;BME280;21602;55.670;37.578;2023-04-29T00:26:24;98926.22;;;4.24;100.00
35489;BME280;21602;55.670;37.578;2023-04-29T00:28:50;98916.84;;;4.21;100.00
35489;BME280;21602;55.670;37.578;2023-04-29T00:31:16;98908.09;;;4.21;100.00
35489;BME280;21602;55.670;37.578;2023-04-29T00:33:44;98911.16;;;4.24;100.00
35489;BME280;21602;55.670;37.578;2023-04-29T00:36:11;98928.03;;;4.30;100.00
35489;BME280;21602;55.670;37.578;2023-04-29T00:38:36;98926.63;;;4.34;100.00
35489;BME280;21602;55.670;37.578;2023-04-29T00:41:02;98931.09;;;4.33;100.00
35489;BME280;21602;55.670;37.578;2023-04-29T00:43:28;98914.22;;;4.28;100.00
35489;BME280;21602;55.670;37.578;2023-04-29T00:45:54;98913.59;;;4.26;100.00
35489;BME280;21602;55.670;37.578;2023-04-29T00:48:20;98904.06;;;4.25;100.00
35489;BME280;21602;55.670;37.578;2023-04-29T00:50:46;98911.38;;;4.29;100.00
35489;BME280;21602;55.670;37.578;2023-04-29T00:53:13;98906.09;;;4.29;100.00
35489;BME280;21602;55.670;37.578;2023-04-29T00:55:40;98907.91;;;4.29;100.00
35489;BME280;21602;55.670;37.578;2023-04-29T00:58:07;98911.97;;;4.31;100.00
35489;BME280;21602;55.670;37.578;2023-04-29T01:00:34;98906.69;;;4.25;100.00
35489;BME280;21602;55.670;37.578;2023-04-29T01:03:01;98909.72;;;4.22;100.00
35489;BME280;21602;55.670;37.578;2023-04-29T01:05:29;98913.78;;;4.18;100.00
35489;BME280;21602;55.670;37.578;2023-04-29T01:10:55;98895.28;;;4.18;100.00
35489;BME280;21602;55.670;37.578;2023-04-29T01:16:10;98913.78;;;4.18;100.00
35489;BME280;21602;55.670;37.578;2023-04-29T01:18:42;98916.03;;;4.21;100.00
35489;BME280;21602;55.670;37.578;2023-04-29T01:21:14;98903.44;;;4.16;100.00
35489;BME280;21602;55.670;37.578;2023-04-29T01:23:40;98914.59;;;4.11;100.00
35489;BME280;21602;55.670;37.578;2023-04-29T01:26:06;98922.34;;;4.13;100.00
35489;BME280;21602;55.670;37.578;2023-04-29T01:32:03;98912.19;;;4.23;100.00
35489;BME280;21602;55.670;37.578;2023-04-29T01:34:43;98912.78;;;4.19;100.00
35489;BME280;21602;55.670;37.578;2023-04-29T01:37:36;98912.38;;;4.22;100.00
35489;BME280;21602;55.670;37.578;2023-04-29T01:40:19;98909.13;;;4.20;100.00
35489;BME280;21602;55.670;37.578;2023-04-29T01:43:01;98902.59;;;4.22;100.00
35489;BME280;21602;55.670;37.578;2023-04-29T01:45:33;98901.19;;;4.26;100.00
35489;BME280;21602;55.670;37.578;2023-04-29T01:48:00;98913.19;;;4.22;100.00
35489;BME280;21602;55.670;37.578;2023-04-29T01:50:27;98906.09;;;4.23;100.00
35489;BME280;21602;55.670;37.578;2023-04-29T01:53:00;98911.56;;;4.15;100.00
35489;BME280;21602;55.670;37.578;2023-04-29T01:55:27;98902.22;;;4.05;100.00
35489;BME280;21602;55.670;37.578;2023-04-29T01:58:11;98916.25;;;3.99;100.00
35489;BME280;21602;55.670;37.578;2023-04-29T02:01:03;98907.09;;;4.02;100.00
35489;BME280;21602;55.670;37.578;2023-04-29T02:03:31;98916.03;;;4.07;100.00
35489;BME280;21602;55.670;37.578;2023-04-29T02:05:59;98916.22;;;4.13;100.00
35489;BME280;21602;55.670;37.578;2023-04-29T02:08:26;98924.19;;;4.19;100.00
35489;BME280;21602;55.670;37.578;2023-04-29T02:10:54;98921.34;;;4.27;100.00
35489;BME280;21602;55.670;37.578;2023-04-29T02:13:41;98925.41;;;4.23;100.00
35489;BME280;21602;55.670;37.578;2023-04-29T02:16:13;98919.47;;;4.21;100.00
35489;BME280;21602;55.670;37.578;2023-04-29T02:18:57;98916.66;;;4.23;100.00
35489;BME280;21602;55.670;37.578;2023-04-29T02:21:24;98918.06;;;4.25;100.00
35489;BME280;21602;55.670;37.578;2023-04-29T02:23:52;98909.34;;;4.25;100.00
35489;BME280;21602;55.670;37.578;2023-04-29T02:26:22;98915.44;;;4.25;100.00
35489;BME280;21602;55.670;37.578;2023-04-29T02:28:48;98914.03;;;4.23;100.00
35489;BME280;21602;55.670;37.578;2023-04-29T02:31:15;98916.03;;;4.21;100.00
35489;BME280;21602;55.670;37.578;2023-04-29T02:33:43;98924.78;;;4.15;100.00
35489;BME280;21602;55.670;37.578;2023-04-29T02:36:09;98927.41;;;4.08;100.00
35489;BME280;21602;55.670;37.578;2023-04-29T02:38:35;98930.88;;;4.08;100.00
35489;BME280;21602;55.670;37.578;2023-04-29T02:41:01;98938.38;;;4.11;100.00
35489;BME280;21602;55.670;37.578;2023-04-29T02:43:27;98945.31;;;4.19;100.00
35489;BME280;21602;55.670;37.578;2023-04-29T02:45:57;98943.69;;;4.25;100.00
35489;BME280;21602;55.670;37.578;2023-04-29T02:48:24;98951.81;;;4.36;100.00
35489;BME280;21602;55.670;37.578;2023-04-29T02:50:51;98964.00;;;4.44;100.00
35489;BME280;21602;55.670;37.578;2023-04-29T02:53:17;98966.88;;;4.43;100.00
35489;BME280;21602;55.670;37.578;2023-04-29T02:55:44;98969.50;;;4.49;100.00
35489;BME280;21602;55.670;37.578;2023-04-29T02:58:10;98966.44;;;4.59;100.00
35489;BME280;21602;55.670;37.578;2023-04-29T03:00:37;98974.59;;;4.57;100.00
35489;BME280;21602;55.670;37.578;2023-04-29T03:03:05;98979.25;;;4.55;100.00
35489;BME280;21602;55.670;37.578;2023-04-29T03:05:31;98979.06;;;4.50;100.00
35489;BME280;21602;55.670;37.578;2023-04-29T03:07:57;98990.06;;;4.47;100.00
35489;BME280;21602;55.670;37.578;2023-04-29T03:10:23;98994.09;;;4.30;100.00
35489;BME280;21602;55.670;37.578;2023-04-29T03:12:49;99001.41;;;4.28;100.00
35489;BME280;21602;55.670;37.578;2023-04-29T03:15:18;99006.06;;;4.26;100.00
35489;BME280;21602;55.670;37.578;2023-04-29T03:17:45;99011.97;;;4.21;100.00
35489;BME280;21602;55.670;37.578;2023-04-29T03:20:12;98997.34;;;4.19;100.00
35489;BME280;21602;55.670;37.578;2023-04-29T03:22:38;99014.41;;;4.23;100.00
35489;BME280;21602;55.670;37.578;2023-04-29T03:25:31;99021.72;;;4.21;100.00
35489;BME280;21602;55.670;37.578;2023-04-29T03:27:57;99018.06;;;4.15;100.00
35489;BME280;21602;55.670;37.578;2023-04-29T03:30:23;99023.34;;;4.22;100.00
35489;BME280;21602;55.670;37.578;2023-04-29T03:32:53;99033.09;;;4.15;100.00
35489;BME280;21602;55.670;37.578;2023-04-29T03:35:19;99038.81;;;4.18;100.00
35489;BME280;21602;55.670;37.578;2023-04-29T03:38:03;99042.03;;;4.14;100.00
35489;BME280;21602;55.670;37.578;2023-04-29T03:40:41;99046.50;;;4.20;100.00
35489;BME280;21602;55.670;37.578;2023-04-29T03:43:32;99044.91;;;4.19;100.00
35489;BME280;21602;55.670;37.578;2023-04-29T03:46:18;99054.22;;;4.15;100.00
35489;BME280;21602;55.670;37.578;2023-04-29T03:48:44;99044.91;;;4.19;100.00
35489;BME280;21602;55.670;37.578;2023-04-29T03:51:12;99051.41;;;4.23;100.00
35489;BME280;21602;55.670;37.578;2023-04-29T03:53:51;99049.97;;;4.14;100.00
35489;BME280;21602;55.670;37.578;2023-04-29T04:00:37;99064.75;;;4.01;100.00
35489;BME280;21602;55.670;37.578;2023-04-29T04:06:47;99045.03;;;3.97;100.00
35489;BME280;21602;55.670;37.578;2023-04-29T04:09:18;99060.28;;;4.02;100.00
35489;BME280;21602;55.670;37.578;2023-04-29T04:11:45;99057.84;;;4.00;100.00
35489;BME280;21602;55.670;37.578;2023-04-29T04:14:12;99050.94;;;3.99;100.00
35489;BME280;21602;55.670;37.578;2023-04-29T04:16:38;99058.47;;;4.09;100.00
35489;BME280;21602;55.670;37.578;2023-04-29T04:19:04;99061.09;;;4.02;100.00
35489;BME280;21602;55.670;37.578;2023-04-29T04:21:35;99066.59;;;4.07;100.00
35489;BME280;21602;55.670;37.578;2023-04-29T04:24:10;99068.00;;;4.03;100.00
35489;BME280;21602;55.670;37.578;2023-04-29T04:26:37;99064.31;;;3.98;100.00
35489;BME280;21602;55.670;37.578;2023-04-29T04:29:20;99058.66;;;4.01;100.00
35489;BME280;21602;55.670;37.578;2023-04-29T04:31:58;99057.25;;;4.05;100.00
35489;BME280;21602;55.670;37.578;2023-04-29T04:34:24;99067.41;;;4.08;100.00
35489;BME280;21602;55.670;37.578;2023-04-29T04:36:53;99054.28;;;4.41;100.00
35489;BME280;21602;55.670;37.578;2023-04-29T04:39:19;99064.44;;;4.51;99.68
35489;BME280;21602;55.670;37.578;2023-04-29T04:41:45;99051.06;;;4.59;98.63
35489;BME280;21602;55.670;37.578;2023-04-29T04:44:11;99049.84;;;4.61;98.60
35489;BME280;21602;55.670;37.578;2023-04-29T04:47:17;99044.13;;;4.45;98.96
35489;BME280;21602;55.670;37.578;2023-04-29T04:53:20;99053.47;;;4.34;99.34
35489;BME280;21602;55.670;37.578;2023-04-29T04:56:00;99059.56;;;4.28;98.65
35489;BME280;21602;55.670;37.578;2023-04-29T04:58:25;99055.03;;;4.22;98.86
35489;BME280;21602;55.670;37.578;2023-04-29T05:01:02;99054.03;;;4.16;100.00
35489;BME280;21602;55.670;37.578;2023-04-29T05:04:15;99062.53;;;4.11;99.19
35489;BME280;21602;55.670;37.578;2023-04-29T05:07:35;99063.81;;;4.29;100.00
35489;BME280;21602;55.670;37.578;2023-04-29T05:10:05;99063.63;;;4.37;98.30
35489;BME280;21602;55.670;37.578;2023-04-29T05:12:35;99065.06;;;4.33;97.21
35489;BME280;21602;55.670;37.578;2023-04-29T05:15:02;99060.53;;;4.27;96.97
35489;BME280;21602;55.670;37.578;2023-04-29T05:17:31;99055.84;;;4.22;97.97
35489;BME280;21602;55.670;37.578;2023-04-29T05:19:59;99054.06;;;4.36;98.37
35489;BME280;21602;55.670;37.578;2023-04-29T05:22:25;99057.53;;;4.50;97.58
35489;BME280;21602;55.670;37.578;2023-04-29T05:24:51;99067.72;;;4.59;97.60
35489;BME280;21602;55.670;37.578;2023-04-29T05:27:19;99069.97;;;4.62;98.04
35489;BME280;21602;55.670;37.578;2023-04-29T05:29:45;99073.84;;;4.67;97.49
35489;BME280;21602;55.670;37.578;2023-04-29T05:32:11;99061.84;;;4.84;97.68
35489;BME280;21602;55.670;37.578;2023-04-29T05:34:38;99067.75;;;4.93;96.29
35489;BME280;21602;55.670;37.578;2023-04-29T05:37:05;99071.63;;;5.03;95.90
35489;BME280;21602;55.670;37.578;2023-04-29T05:39:37;99067.53;;;5.07;95.06
35489;BME280;21602;55.670;37.578;2023-04-29T05:42:10;99065.50;;;5.03;93.67
35489;BME280;21602;55.670;37.578;2023-04-29T05:44:41;99088.91;;;5.06;94.29
35489;BME280;21602;55.670;37.578;2023-04-29T05:47:07;99089.72;;;5.06;94.43
35489;BME280;21602;55.670;37.578;2023-04-29T05:49:33;99083.03;;;5.04;92.21
35489;BME280;21602;55.670;37.578;2023-04-29T05:51:59;99091.75;;;4.98;93.30
35489;BME280;21602;55.670;37.578;2023-04-29T05:54:31;99088.09;;;4.92;91.61
35489;BME280;21602;55.670;37.578;2023-04-29T05:56:58;99087.47;;;4.77;92.81
35489;BME280;21602;55.670;37.578;2023-04-29T05:59:31;99101.94;;;4.87;95.40
35489;BME280;21602;55.670;37.578;2023-04-29T06:02:01;99115.97;;;5.08;94.61
35489;BME280;21602;55.670;37.578;2023-04-29T06:04:27;99115.38;;;5.19;93.53
35489;BME280;21602;55.670;37.578;2023-04-29T06:07:12;99114.75;;;5.24;93.88
35489;BME280;21602;55.670;37.578;2023-04-29T06:09:51;99116.38;;;5.25;92.42
35489;BME280;21602;55.670;37.578;2023-04-29T06:12:17;99124.13;;;5.33;93.72
35489;BME280;21602;55.670;37.578;2023-04-29T06:14:45;99128.19;;;5.35;92.22
35489;BME280;21602;55.670;37.578;2023-04-29T06:17:12;99122.09;;;5.42;92.56
35489;BME280;21602;55.670;37.578;2023-04-29T06:19:38;99123.88;;;5.61;92.74
35489;BME280;21602;55.670;37.578;2023-04-29T06:22:03;99140.72;;;5.86;93.02
35489;BME280;21602;55.670;37.578;2023-04-29T06:24:31;99133.97;;;6.10;92.23
35489;BME280;21602;55.670;37.578;2023-04-29T06:26:57;99137.22;;;6.12;89.53
35489;BME280;21602;55.670;37.578;2023-04-29T06:29:24;99140.66;;;6.20;89.33
35489;BME280;21602;55.670;37.578;2023-04-29T06:31:51;99139.41;;;6.29;89.90
35489;BME280;21602;55.670;37.578;2023-04-29T06:34:18;99136.53;;;6.30;88.39
35489;BME280;21602;55.670;37.578;2023-04-29T06:37:13;99144.16;;;6.13;88.21
35489;BME280;21602;55.670;37.578;2023-04-29T06:40:08;99155.53;;;6.27;88.32
35489;BME280;21602;55.670;37.578;2023-04-29T06:42:41;99150.34;;;6.39;88.05
35489;BME280;21602;55.670;37.578;2023-04-29T06:45:46;99160.28;;;6.50;86.14
35489;BME280;21602;55.670;37.578;2023-04-29T06:48:28;99154.97;;;6.57;86.20
35489;BME280;21602;55.670;37.578;2023-04-29T06:50:56;99156.19;;;6.54;85.25
35489;BME280;21602;55.670;37.578;2023-04-29T06:53:23;99161.94;;;6.45;84.18
35489;BME280;21602;55.670;37.578;2023-04-29T06:55:49;99165.19;;;6.53;84.40
35489;BME280;21602;55.670;37.578;2023-04-29T06:58:16;99171.94;;;6.49;85.06
35489;BME280;21602;55.670;37.578;2023-04-29T07:00:49;99162.28;;;6.61;85.81
35489;BME280;21602;55.670;37.578;2023-04-29T07:03:16;99159.53;;;6.81;86.15
35489;BME280;21602;55.670;37.578;2023-04-29T07:05:43;99174.28;;;7.02;85.22
35489;BME280;21602;55.670;37.578;2023-04-29T07:08:13;99183.97;;;7.22;85.12
35489;BME280;21602;55.670;37.578;2023-04-29T07:10:39;99177.78;;;7.28;83.84
35489;BME280;21602;55.670;37.578;2023-04-29T07:13:06;99181.41;;;7.33;83.45
35489;BME280;21602;55.670;37.578;2023-04-29T07:15:33;99193.63;;;7.41;82.26
35489;BME280;21602;55.670;37.578;2023-04-29T07:18:04;99193.16;;;7.44;82.03
35489;BME280;21602;55.670;37.578;2023-04-29T07:20:31;99195.25;;;7.42;82.45
35489;BME280;21602;55.670;37.578;2023-04-29T07:22:57;99194.44;;;7.41;82.18
35489;BME280;21602;55.670;37.578;2023-04-29T07:25:25;99193.50;;;7.54;82.48
35489;BME280;21602;55.670;37.578;2023-04-29T07:27:51;99204.63;;;7.69;81.91
35489;BME280;21602;55.670;37.578;2023-04-29T07:30:17;99201.13;;;7.94;82.76
35489;BME280;21602;55.670;37.578;2023-04-29T07:32:43;99197.66;;;8.12;82.51
35489;BME280;21602;55.670;37.578;2023-04-29T07:35:09;99202.75;;;8.13;78.76
35489;BME280;21602;55.670;37.578;2023-04-29T07:37:35;99206.34;;;8.01;79.90
35489;BME280;21602;55.670;37.578;2023-04-29T07:40:01;99206.63;;;7.92;79.94
35489;BME280;21602;55.670;37.578;2023-04-29T07:42:29;99215.41;;;7.75;79.63
35489;BME280;21602;55.670;37.578;2023-04-29T07:44:58;99212.59;;;7.69;80.64
35489;BME280;21602;55.670;37.578;2023-04-29T07:47:24;99219.19;;;7.85;80.39
35489;BME280;21602;55.670;37.578;2023-04-29T07:49:50;99228.59;;;8.06;80.44
35489;BME280;21602;55.670;37.578;2023-04-29T07:52:17;99224.91;;;8.26;79.49
35489;BME280;21602;55.670;37.578;2023-04-29T07:54:43;99221.19;;;8.52;80.38
35489;BME280;21602;55.670;37.578;2023-04-29T07:57:09;99228.06;;;8.59;75.97
35489;BME280;21602;55.670;37.578;2023-04-29T07:59:35;99227.03;;;8.42;77.74
35489;BME280;21602;55.670;37.578;2023-04-29T08:02:01;99228.31;;;8.33;77.30
35489;BME280;21602;55.670;37.578;2023-04-29T08:04:27;99230.16;;;8.32;76.73
35489;BME280;21602;55.670;37.578;2023-04-29T08:06:59;99252.44;;;8.38;74.93
35489;BME280;21602;55.670;37.578;2023-04-29T08:09:26;99243.84;;;8.17;75.44
35489;BME280;21602;55.670;37.578;2023-04-29T08:11:52;99250.47;;;8.08;76.58
35489;BME280;21602;55.670;37.578;2023-04-29T08:14:18;99235.16;;;8.04;77.72
35489;BME280;21602;55.670;37.578;2023-04-29T08:16:43;99245.28;;;8.13;76.43
35489;BME280;21602;55.670;37.578;2023-04-29T08:19:09;99259.16;;;8.15;77.22
35489;BME280;21602;55.670;37.578;2023-04-29T08:21:36;99247.16;;;8.13;74.77
35489;BME280;21602;55.670;37.578;2023-04-29T08:24:01;99257.97;;;8.11;73.74
35489;BME280;21602;55.670;37.578;2023-04-29T08:26:27;99253.16;;;8.27;73.28
35489;BME280;21602;55.670;37.578;2023-04-29T08:28:56;99263.75;;;8.52;72.29
35489;BME280;21602;55.670;37.578;2023-04-29T08:31:22;99261.13;;;8.45;72.93
35489;BME280;21602;55.670;37.578;2023-04-29T08:33:48;99265.13;;;8.54;73.60
35489;BME280;21602;55.670;37.578;2023-04-29T08:36:14;99264.84;;;8.62;73.57
35489;BME280;21602;55.670;37.578;2023-04-29T08:38:41;99261.66;;;8.54;72.63
35489;BME280;21602;55.670;37.578;2023-04-29T08:41:07;99257.75;;;8.56;73.24
35489;BME280;21602;55.670;37.578;2023-04-29T08:43:37;99249.81;;;8.68;72.12
35489;BME280;21602;55.670;37.578;2023-04-29T08:46:05;99256.69;;;8.76;71.62
35489;BME280;21602;55.670;37.578;2023-04-29T08:48:33;99249.38;;;8.89;72.13
35489;BME280;21602;55.670;37.578;2023-04-29T08:51:00;99250.94;;;9.09;72.41
35489;BME280;21602;55.670;37.578;2023-04-29T08:53:27;99257.28;;;9.38;70.33
35489;BME280;21602;55.670;37.578;2023-04-29T08:55:53;99272.72;;;9.47;68.06
35489;BME280;21602;55.670;37.578;2023-04-29T08:58:19;99267.31;;;9.24;66.58
35489;BME280;21602;55.670;37.578;2023-04-29T09:00:47;99264.91;;;9.22;67.66
35489;BME280;21602;55.670;37.578;2023-04-29T09:05:47;99264.78;;;9.59;68.35
35489;BME280;21602;55.670;37.578;2023-04-29T09:08:15;99259.59;;;9.88;68.16
35489;BME280;21602;55.670;37.578;2023-04-29T09:10:42;99254.03;;;10.13;66.29
35489;BME280;21602;55.670;37.578;2023-04-29T09:13:08;99274.78;;;10.22;65.31
35489;BME280;21602;55.670;37.578;2023-04-29T09:15:37;99261.81;;;10.26;63.11
35489;BME280;21602;55.670;37.578;2023-04-29T09:18:05;99261.56;;;10.39;64.21
35489;BME280;21602;55.670;37.578;2023-04-29T09:20:30;99267.47;;;10.30;61.42
35489;BME280;21602;55.670;37.578;2023-04-29T09:22:57;99289.50;;;10.01;62.08
35489;BME280;21602;55.670;37.578;2023-04-29T09:25:24;99287.41;;;9.80;62.00
35489;BME280;21602;55.670;37.578;2023-04-29T09:27:53;99288.75;;;9.59;61.17
35489;BME280;21602;55.670;37.578;2023-04-29T09:30:19;99292.66;;;9.45;62.73
35489;BME280;21602;55.670;37.578;2023-04-29T09:33:03;99280.28;;;9.20;63.05
35489;BME280;21602;55.670;37.578;2023-04-29T09:35:30;99293.13;;;9.12;62.54
35489;BME280;21602;55.670;37.578;2023-04-29T09:38:09;99296.72;;;9.17;61.81
35489;BME280;21602;55.670;37.578;2023-04-29T09:40:35;99309.31;;;9.10;60.66
35489;BME280;21602;55.670;37.578;2023-04-29T09:43:01;99297.31;;;9.19;59.94
35489;BME280;21602;55.670;37.578;2023-04-29T09:45:47;99284.75;;;9.38;60.03
35489;BME280;21602;55.670;37.578;2023-04-29T09:48:14;99287.59;;;9.55;59.57
35489;BME280;21602;55.670;37.578;2023-04-29T09:50:43;99298.38;;;9.60;58.05
35489;BME280;21602;55.670;37.578;2023-04-29T09:53:30;99305.00;;;9.81;57.78
35489;BME280;21602;55.670;37.578;2023-04-29T09:58:31;99312.72;;;10.13;56.63
35489;BME280;21602;55.670;37.578;2023-04-29T10:01:02;99316.28;;;10.18;54.62
35489;BME280;21602;55.670;37.578;2023-04-29T10:03:34;99298.00;;;10.34;56.36
35489;BME280;21602;55.670;37.578;2023-04-29T10:06:02;99308.44;;;10.47;55.65
35489;BME280;21602;55.670;37.578;2023-04-29T10:08:29;99304.50;;;10.38;55.08
35489;BME280;21602;55.670;37.578;2023-04-29T10:11:00;99304.94;;;10.23;54.12
35489;BME280;21602;55.670;37.578;2023-04-29T10:13:27;99324.41;;;10.00;52.66
35489;BME280;21602;55.670;37.578;2023-04-29T10:16:29;99314.44;;;10.19;52.41
35489;BME280;21602;55.670;37.578;2023-04-29T10:18:59;99307.50;;;10.30;53.16
35489;BME280;21602;55.670;37.578;2023-04-29T10:21:29;99313.53;;;10.60;52.89
35489;BME280;21602;55.670;37.578;2023-04-29T10:23:57;99320.25;;;11.15;53.19
35489;BME280;21602;55.670;37.578;2023-04-29T10:26:27;99305.00;;;11.44;51.57
35489;BME280;21602;55.670;37.578;2023-04-29T10:28:57;99322.00;;;11.38;49.85
35489;BME280;21602;55.670;37.578;2023-04-29T10:31:27;99323.91;;;10.97;49.98
35489;BME280;21602;55.670;37.578;2023-04-29T10:33:57;99347.03;;;10.68;49.97
35489;BME280;21602;55.670;37.578;2023-04-29T10:36:27;99339.53;;;10.53;50.88
35489;BME280;21602;55.670;37.578;2023-04-29T10:39:02;99340.09;;;10.67;51.54
35489;BME280;21602;55.670;37.578;2023-04-29T10:41:44;99347.38;;;10.95;50.42
35489;BME280;21602;55.670;37.578;2023-04-29T10:44:12;99341.97;;;11.18;50.96
35489;BME280;21602;55.670;37.578;2023-04-29T10:46:39;99356.91;;;11.31;50.77
35489;BME280;21602;55.670;37.578;2023-04-29T10:49:05;99355.13;;;11.08;50.92
35489;BME280;21602;55.670;37.578;2023-04-29T10:51:44;99385.47;;;10.79;49.04
35489;BME280;21602;55.670;37.578;2023-04-29T10:54:15;99365.53;;;10.69;49.55
35489;BME280;21602;55.670;37.578;2023-04-29T10:56:52;99359.59;;;10.56;50.02
35489;BME280;21602;55.670;37.578;2023-04-29T11:00:05;99359.25;;;10.52;50.18
35489;BME280;21602;55.670;37.578;2023-04-29T11:02:06;99365.03;;;10.49;50.39
35489;BME280;21602;55.670;37.578;2023-04-29T11:04:32;99364.81;;;10.62;51.05
35489;BME280;21602;55.670;37.578;2023-04-29T11:06:59;99365.94;;;10.90;50.96
35489;BME280;21602;55.670;37.578;2023-04-29T11:09:34;99369.81;;;11.22;50.34
35489;BME280;21602;55.670;37.578;2023-04-29T11:12:06;99373.16;;;11.58;50.45
35489;BME280;21602;55.670;37.578;2023-04-29T11:17:09;99369.06;;;12.46;49.22
35489;BME280;21602;55.670;37.578;2023-04-29T11:19:45;99368.06;;;12.69;47.58
35489;BME280;21602;55.670;37.578;2023-04-29T11:24:48;99366.06;;;12.81;47.03
35489;BME280;21602;55.670;37.578;2023-04-29T11:27:16;99365.91;;;12.88;46.90
35489;BME280;21602;55.670;37.578;2023-04-29T11:29:44;99373.69;;;12.90;45.22
35489;BME280;21602;55.670;37.578;2023-04-29T11:32:11;99371.19;;;12.83;44.77
35489;BME280;21602;55.670;37.578;2023-04-29T11:34:36;99373.69;;;12.51;44.32
35489;BME280;21602;55.670;37.578;2023-04-29T11:37:04;99370.28;;;12.39;44.60
35489;BME280;21602;55.670;37.578;2023-04-29T11:39:33;99373.13;;;12.49;44.73
35489;BME280;21602;55.670;37.578;2023-04-29T11:42:05;99371.97;;;12.62;44.21
35489;BME280;21602;55.670;37.578;2023-04-29T11:44:34;99378.72;;;12.64;43.79
35489;BME280;21602;55.670;37.578;2023-04-29T11:47:06;99369.53;;;12.43;44.04
35489;BME280;21602;55.670;37.578;2023-04-29T11:49:33;99369.41;;;12.33;44.67
35489;BME280;21602;55.670;37.578;2023-04-29T11:51:59;99367.31;;;12.35;45.37
35489;BME280;21602;55.670;37.578;2023-04-29T11:54:26;99364.84;;;12.50;44.48
35489;BME280;21602;55.670;37.578;2023-04-29T11:56:57;99360.78;;;12.48;43.68
35489;BME280;21602;55.670;37.578;2023-04-29T11:59:23;99360.31;;;12.51;44.23
35489;BME280;21602;55.670;37.578;2023-04-29T12:01:49;99361.50;;;12.60;43.21
35489;BME280;21602;55.670;37.578;2023-04-29T12:04:16;99359.16;;;12.47;43.45
35489;BME280;21602;55.670;37.578;2023-04-29T12:06:42;99351.38;;;12.28;43.38
35489;BME280;21602;55.670;37.578;2023-04-29T12:09:11;99355.38;;;12.26;43.78
35489;BME280;21602;55.670;37.578;2023-04-29T12:11:37;99355.31;;;12.21;43.44
35489;BME280;21602;55.670;37.578;2023-04-29T12:14:04;99361.94;;;12.18;43.74
35489;BME280;21602;55.670;37.578;2023-04-29T12:16:32;99365.75;;;12.22;43.61
35489;BME280;21602;55.670;37.578;2023-04-29T12:18:59;99360.72;;;12.26;43.45
35489;BME280;21602;55.670;37.578;2023-04-29T12:21:25;99361.31;;;12.11;43.54
35489;BME280;21602;55.670;37.578;2023-04-29T12:23:52;99358.38;;;12.13;43.98
35489;BME280;21602;55.670;37.578;2023-04-29T12:26:18;99350.19;;;12.19;44.01
35489;BME280;21602;55.670;37.578;2023-04-29T12:28:52;99357.72;;;12.22;43.60
35489;BME280;21602;55.670;37.578;2023-04-29T12:31:19;99357.16;;;12.37;43.56
35489;BME280;21602;55.670;37.578;2023-04-29T12:33:45;99349.25;;;12.47;43.46
35489;BME280;21602;55.670;37.578;2023-04-29T12:36:16;99356.22;;;12.48;43.02
35489;BME280;21602;55.670;37.578;2023-04-29T12:38:43;99365.03;;;12.44;42.59
35489;BME280;21602;55.670;37.578;2023-04-29T12:41:09;99359.16;;;12.47;43.15
35489;BME280;21602;55.670;37.578;2023-04-29T12:43:36;99360.75;;;12.65;43.30
35489;BME280;21602;55.670;37.578;2023-04-29T12:46:03;99363.31;;;12.76;42.15
35489;BME280;21602;55.670;37.578;2023-04-29T12:48:33;99361.97;;;12.74;42.35
35489;BME280;21602;55.670;37.578;2023-04-29T12:51:00;99357.16;;;12.76;42.29
35489;BME280;21602;55.670;37.578;2023-04-29T12:53:28;99360.69;;;12.60;41.52
35489;BME280;21602;55.670;37.578;2023-04-29T12:55:54;99363.22;;;12.49;41.78
35489;BME280;21602;55.670;37.578;2023-04-29T12:58:22;99361.78;;;12.42;41.41
35489;BME280;21602;55.670;37.578;2023-04-29T13:00:48;99364.22;;;12.26;40.97
35489;BME280;21602;55.670;37.578;2023-04-29T13:03:14;99359.50;;;12.34;41.30
35489;BME280;21602;55.670;37.578;2023-04-29T13:05:41;99355.06;;;12.39;40.68
35489;BME280;21602;55.670;37.578;2023-04-29T13:08:07;99345.97;;;12.40;41.08
35489;BME280;21602;55.670;37.578;2023-04-29T13:10:34;99349.78;;;12.44;41.34
35489;BME280;21602;55.670;37.578;2023-04-29T13:13:00;99352.53;;;12.49;41.41
35489;BME280;21602;55.670;37.578;2023-04-29T13:15:26;99353.88;;;12.52;40.92
35489;BME280;21602;55.670;37.578;2023-04-29T13:17:52;99342.09;;;12.53;40.54
35489;BME280;21602;55.670;37.578;2023-04-29T13:20:18;99347.81;;;12.40;40.37
35489;BME280;21602;55.670;37.578;2023-04-29T13:22:45;99355.69;;;12.46;40.17
35489;BME280;21602;55.670;37.578;2023-04-29T13:25:11;99354.94;;;12.51;39.59
35489;BME280;21602;55.670;37.578;2023-04-29T13:27:38;99347.16;;;12.49;39.68
35489;BME280;21602;55.670;37.578;2023-04-29T13:30:05;99351.19;;;12.52;39.49
35489;BME280;21602;55.670;37.578;2023-04-29T13:32:31;99340.56;;;12.57;39.84
35489;BME280;21602;55.670;37.578;2023-04-29T13:34:57;99345.50;;;12.65;39.38
35489;BME280;21602;55.670;37.578;2023-04-29T13:37:23;99348.31;;;12.75;39.85